Time;durP1;ratioP1;P1;durP2;ratioP2;P2;SDS_P1;SDS_P2;PMS_P1;PMS_P2;Temp;Humidity;BMP_temperature;BMP_pressure;BME280_temperature;BME280_humidity;BME280_pressure;Samples;Min_cycle;Max_cycle;Signal;HPM_P1;HPM_P2
2023/05/08 00:00:17;;;;;;;0.47;0.47;;;;;;;15.46;77.15;99693.50;5053571;28;20208;-62
2023/05/08 00:02:44;;;;;;;0.50;0.50;;;;;;;15.47;77.04;99696.03;5053371;28;20201;-63
2023/05/08 00:05:10;;;;;;;0.50;0.50;;;;;;;15.26;77.13;99702.13;5053296;28;20258;-62
2023/05/08 00:07:38;;;;;;;0.60;0.60;;;;;;;15.22;77.61;99695.41;5053022;28;20273;-63
2023/05/08 00:10:07;;;;;;;0.50;0.50;;;;;;;15.19;77.89;99692.97;5053452;28;20738;-62
2023/05/08 00:12:34;;;;;;;0.60;0.60;;;;;;;15.19;78.35;99698.13;5052987;28;20208;-62
2023/05/08 00:15:00;;;;;;;0.50;0.50;;;;;;;15.09;77.78;99678.78;5053318;28;20258;-62
2023/05/08 00:17:27;;;;;;;0.50;0.50;;;;;;;15.18;77.88;99693.91;5052392;28;20189;-63
2023/05/08 00:19:54;;;;;;;0.50;0.50;;;;;;;15.18;77.94;99699.06;5053490;28;20199;-61
2023/05/08 00:22:21;;;;;;;0.47;0.47;;;;;;;15.18;77.80;99694.75;5053331;28;20209;-63
2023/05/08 00:24:49;;;;;;;0.50;0.50;;;;;;;15.18;77.52;99691.31;5053080;28;20277;-63
2023/05/08 00:27:16;;;;;;;0.77;0.77;;;;;;;15.19;77.59;99690.41;5053146;28;20224;-62
2023/05/08 00:29:42;;;;;;;0.50;0.50;;;;;;;15.20;77.58;99692.94;5053028;28;20266;-62
2023/05/08 00:32:10;;;;;;;0.50;0.50;;;;;;;15.21;77.93;99684.28;5052713;28;20721;-63
2023/05/08 00:34:36;;;;;;;0.47;0.47;;;;;;;15.22;77.93;99682.50;5052859;28;20207;-62
2023/05/08 00:37:03;;;;;;;0.87;0.70;;;;;;;15.18;77.75;99694.75;5052294;28;20282;-63
2023/05/08 00:39:30;;;;;;;0.60;0.60;;;;;;;15.06;78.89;99686.66;5053053;28;20350;-63
2023/05/08 00:41:58;;;;;;;0.50;0.50;;;;;;;15.01;79.91;99693.78;5052996;28;20675;-62
2023/05/08 00:44:24;;;;;;;0.50;0.50;;;;;;;14.92;80.67;99694.19;5052117;28;20208;-62
2023/05/08 00:46:51;;;;;;;0.60;0.60;;;;;;;14.73;81.53;99670.09;5052785;28;20750;-62
2023/05/08 00:49:19;;;;;;;0.40;0.40;;;;;;;14.76;81.98;99695.75;5050208;28;20201;-62
2023/05/08 00:51:48;;;;;;;0.50;0.50;;;;;;;14.62;82.55;99699.75;5052226;28;20250;-62
2023/05/08 00:54:16;;;;;;;0.40;0.40;;;;;;;14.60;82.53;99704.13;5051249;28;20642;-61
2023/05/08 00:56:43;;;;;;;0.53;0.53;;;;;;;14.49;82.87;99698.59;5052250;28;20654;-62
2023/05/08 00:59:14;;;;;;;0.63;0.63;;;;;;;14.47;83.64;99700.41;5052091;28;20237;-62
2023/05/08 01:01:41;;;;;;;0.53;0.53;;;;;;;14.45;83.66;99698.75;5052222;28;20197;-61
2023/05/08 01:04:08;;;;;;;0.77;0.77;;;;;;;14.37;83.71;99693.94;5052641;28;20663;-61
2023/05/08 01:06:35;;;;;;;0.40;0.40;;;;;;;14.45;83.69;99714.22;5052079;28;20200;-63
2023/05/08 01:09:02;;;;;;;0.50;0.50;;;;;;;14.46;83.98;99709.03;5052178;28;20266;-61
2023/05/08 01:11:34;;;;;;;0.50;0.50;;;;;;;14.45;84.05;99711.66;5052535;28;20251;-61
2023/05/08 01:14:11;;;;;;;0.60;0.60;;;;;;;14.46;83.82;99719.34;5051385;28;20204;-62
2023/05/08 01:16:45;;;;;;;0.50;0.50;;;;;;;14.48;83.65;99712.38;5050918;28;20658;-62
2023/05/08 01:19:32;;;;;;;0.60;0.60;;;;;;;14.39;84.25;99717.91;5051772;28;20387;-62
2023/05/08 01:22:09;;;;;;;0.50;0.50;;;;;;;14.36;84.08;99709.47;5051998;28;20615;-61
2023/05/08 01:24:59;;;;;;;0.80;0.80;;;;;;;14.37;84.50;99713.72;5052141;28;20258;-62
2023/05/08 01:27:58;;;;;;;0.53;0.53;;;;;;;14.34;85.17;99727.59;5051815;28;20600;-62
2023/05/08 01:30:49;;;;;;;0.57;0.57;;;;;;;14.32;85.16;99719.03;5049146;28;20251;-62
2023/05/08 01:33:24;;;;;;;0.40;0.40;;;;;;;14.33;84.78;99722.44;5052360;28;20247;-62
2023/05/08 01:35:55;;;;;;;0.50;0.50;;;;;;;14.31;84.95;99714.78;5052087;28;20199;-62
2023/05/08 01:38:30;;;;;;;0.50;0.50;;;;;;;14.24;84.88;99707.34;5051937;28;20201;-62
2023/05/08 01:41:06;;;;;;;0.50;0.50;;;;;;;14.28;85.19;99708.91;5051329;28;20290;-63
2023/05/08 01:43:47;;;;;;;0.70;0.70;;;;;;;14.20;85.90;99717.78;5051765;28;20200;-62
2023/05/08 01:46:19;;;;;;;0.47;0.47;;;;;;;14.18;86.00;99713.59;5051900;28;20698;-62
2023/05/08 01:48:54;;;;;;;0.53;0.53;;;;;;;14.17;85.95;99717.06;5050330;28;20252;-62
2023/05/08 01:51:24;;;;;;;0.50;0.50;;;;;;;14.16;86.21;99710.22;5051941;28;20268;-62
2023/05/08 01:53:55;;;;;;;0.50;0.50;;;;;;;14.16;86.03;99710.22;5051677;28;20268;-62
2023/05/08 01:56:24;;;;;;;0.40;0.40;;;;;;;14.07;86.34;99700.28;5051504;28;20398;-62
2023/05/08 01:58:52;;;;;;;0.67;0.67;;;;;;;14.13;86.11;99720.66;5051127;28;20243;-61
2023/05/08 02:01:24;;;;;;;0.53;0.53;;;;;;;14.07;86.79;99720.91;5045845;28;20204;-61
2023/05/08 02:03:54;;;;;;;0.60;0.60;;;;;;;14.05;87.12;99717.56;5051485;28;20691;-62
2023/05/08 02:06:22;;;;;;;0.60;0.60;;;;;;;14.04;86.85;99718.44;5051905;28;20206;-62
2023/05/08 02:08:50;;;;;;;0.60;0.60;;;;;;;13.90;87.24;99705.25;5051495;28;20216;-62
2023/05/08 02:11:17;;;;;;;0.40;0.40;;;;;;;13.88;87.57;99714.78;5051604;28;20634;-62
2023/05/08 02:13:47;;;;;;;0.50;0.50;;;;;;;13.76;87.77;99692.06;5051366;28;20651;-62
2023/05/08 02:16:15;;;;;;;0.50;0.50;;;;;;;13.89;87.53;99708.75;5051519;28;20223;-62
2023/05/08 02:18:44;;;;;;;0.50;0.50;;;;;;;13.83;88.12;99717.53;5051665;28;20258;-61
2023/05/08 02:21:15;;;;;;;0.60;0.60;;;;;;;13.72;88.62;99716.28;5050015;28;20550;-61
2023/05/08 02:23:43;;;;;;;0.50;0.50;;;;;;;13.74;88.91;99717.03;5051123;28;20209;-61
2023/05/08 02:26:12;;;;;;;0.40;0.40;;;;;;;13.61;89.03;99722.66;5051021;28;20204;-62
2023/05/08 02:28:40;;;;;;;0.97;0.97;;;;;;;13.55;89.61;99716.91;5050884;28;20216;-62
2023/05/08 02:31:08;;;;;;;1.03;1.03;;;;;;;13.50;89.39;99706.78;5050631;28;20212;-61
2023/05/08 02:33:38;;;;;;;1.07;0.80;;;;;;;13.52;89.49;99715.28;5051370;28;20197;-61
2023/05/08 02:36:06;;;;;;;0.50;0.50;;;;;;;13.55;89.62;99716.91;5051101;28;20208;-61
2023/05/08 02:38:38;;;;;;;0.60;0.60;;;;;;;13.44;90.06;99722.44;5051247;28;20263;-62
2023/05/08 02:41:06;;;;;;;0.67;0.67;;;;;;;13.41;90.39;99725.13;5050710;28;20200;-61
2023/05/08 02:43:33;;;;;;;0.50;0.50;;;;;;;13.28;89.88;99720.50;5051426;28;20651;-62
2023/05/08 02:46:09;;;;;;;0.70;0.70;;;;;;;13.04;91.27;99717.00;5050644;28;20251;-62
2023/05/08 02:48:40;;;;;;;0.43;0.43;;;;;;;13.09;91.72;99722.84;5044783;28;20274;-62
2023/05/08 02:51:18;;;;;;;0.80;0.80;;;;;;;13.10;92.20;99727.13;5050108;28;20232;-62
2023/05/08 02:53:58;;;;;;;0.50;0.50;;;;;;;13.02;92.40;99721.38;5050616;28;20196;-62
2023/05/08 02:56:33;;;;;;;0.60;0.60;;;;;;;12.93;92.11;99721.69;5050340;28;20228;-61
2023/05/08 02:59:10;;;;;;;0.40;0.40;;;;;;;12.84;91.44;99717.69;5049954;28;20599;-61
2023/05/08 03:01:44;;;;;;;0.60;0.60;;;;;;;12.82;91.69;99728.94;5044676;28;20200;-61
2023/05/08 03:04:19;;;;;;;0.60;0.60;;;;;;;12.81;91.13;99732.41;5049959;28;20229;-62
2023/05/08 03:06:48;;;;;;;0.50;0.50;;;;;;;12.84;91.06;99722.00;5050874;28;20196;-61
2023/05/08 03:09:20;;;;;;;0.50;0.50;;;;;;;12.88;90.98;99734.72;5050575;28;20700;-61
2023/05/08 03:11:50;;;;;;;0.50;0.50;;;;;;;12.78;90.55;99732.50;5050839;28;20562;-62
2023/05/08 03:14:22;;;;;;;0.50;0.50;;;;;;;12.78;90.12;99738.50;5050521;28;20201;-62
2023/05/08 03:16:53;;;;;;;0.70;0.70;;;;;;;12.85;90.25;99745.13;5050844;28;20200;-62
2023/05/08 03:19:28;;;;;;;0.50;0.50;;;;;;;12.87;89.39;99737.34;5049739;28;20242;-61
2023/05/08 03:21:57;;;;;;;0.60;0.60;;;;;;;12.78;89.94;99733.34;5050780;28;20664;-62
2023/05/08 03:24:27;;;;;;;0.50;0.50;;;;;;;12.77;90.38;99738.53;5050269;28;20668;-62
2023/05/08 03:26:55;;;;;;;0.40;0.40;;;;;;;12.61;91.62;99744.19;5050707;28;20197;-62
2023/05/08 03:29:23;;;;;;;0.50;0.50;;;;;;;12.67;91.85;99750.00;5050425;28;20654;-61
2023/05/08 03:31:51;;;;;;;0.50;0.50;;;;;;;12.71;91.34;99744.72;5050661;28;20254;-61
2023/05/08 03:34:20;;;;;;;0.57;0.57;;;;;;;12.64;92.16;99751.81;5050443;28;20200;-62
2023/05/08 03:36:47;;;;;;;0.57;0.57;;;;;;;12.67;92.78;99744.88;5050479;28;20227;-61
2023/05/08 03:39:14;;;;;;;0.43;0.43;;;;;;;12.69;92.53;99749.09;5049986;28;20229;-62
2023/05/08 03:41:43;;;;;;;0.57;0.57;;;;;;;12.75;92.34;99753.19;5050571;28;20608;-61
2023/05/08 03:44:10;;;;;;;0.40;0.40;;;;;;;12.68;92.47;99731.13;5050090;28;20266;-61
2023/05/08 03:46:38;;;;;;;0.67;0.67;;;;;;;12.83;91.76;99756.34;5050009;28;20197;-61
2023/05/08 03:49:08;;;;;;;0.80;0.80;;;;;;;12.82;91.33;99752.09;5050253;28;20269;-61
2023/05/08 03:51:38;;;;;;;0.53;0.53;;;;;;;12.86;91.51;99756.25;5050129;28;20266;-62
2023/05/08 03:54:05;;;;;;;0.57;0.57;;;;;;;12.85;91.95;99754.56;5050272;28;20283;-61
2023/05/08 03:56:33;;;;;;;0.50;0.50;;;;;;;12.82;92.60;99754.69;5049097;28;20204;-61
2023/05/08 03:59:15;;;;;;;0.50;0.50;;;;;;;12.86;92.95;99766.56;5050470;28;20262;-61
2023/05/08 04:01:50;;;;;;;0.50;0.50;;;;;;;12.97;93.52;99764.44;5050137;28;20193;-61
2023/05/08 04:04:19;;;;;;;0.50;0.50;;;;;;;13.10;93.54;99770.88;5049884;28;20224;-62
2023/05/08 04:06:52;;;;;;;0.50;0.50;;;;;;;13.22;93.40;99770.44;5050217;28;20254;-61
2023/05/08 04:09:27;;;;;;;1.00;1.00;;;;;;;13.35;92.55;99769.13;5050165;28;20610;-61
2023/05/08 04:12:03;;;;;;;0.60;0.60;;;;;;;13.47;92.70;99767.88;5051665;28;20722;-61
2023/05/08 04:14:37;;;;;;;0.50;0.50;;;;;;;13.64;92.86;99773.22;5053051;28;20749;-61
2023/05/08 04:17:09;;;;;;;0.50;0.50;;;;;;;13.80;92.88;99776.91;5053486;28;20203;-62
2023/05/08 04:19:42;;;;;;;0.60;0.60;;;;;;;14.01;92.92;99770.97;5052811;28;20205;-62
2023/05/08 04:22:11;;;;;;;0.67;0.67;;;;;;;14.18;92.78;99765.97;5053047;28;20196;-62
2023/05/08 04:24:43;;;;;;;0.70;0.70;;;;;;;14.38;91.68;99772.97;5052848;28;20203;-62
2023/05/08 04:27:10;;;;;;;0.40;0.40;;;;;;;14.62;91.49;99772.00;5053244;28;20199;-61
2023/05/08 04:29:39;;;;;;;0.50;0.50;;;;;;;14.85;90.41;99773.63;5053244;28;20220;-63
2023/05/08 04:32:07;;;;;;;0.50;0.50;;;;;;;14.98;89.22;99774.81;5053334;28;20202;-62
2023/05/08 04:34:34;;;;;;;0.60;0.60;;;;;;;15.22;89.36;99776.34;5053236;28;20675;-62
2023/05/08 04:37:01;;;;;;;0.50;0.50;;;;;;;15.35;88.12;99774.06;5053289;28;20216;-61
2023/05/08 04:39:27;;;;;;;0.50;0.50;;;;;;;15.63;88.52;99774.56;5052979;28;20262;-62
2023/05/08 04:42:01;;;;;;;0.60;0.60;;;;;;;15.92;87.15;99765.50;5052480;28;20201;-61
2023/05/08 04:44:28;;;;;;;0.70;0.70;;;;;;;16.23;84.54;99775.22;5053161;28;20280;-61
2023/05/08 04:46:56;;;;;;;0.50;0.50;;;;;;;16.41;81.79;99778.72;5051947;28;20296;-62
2023/05/08 04:49:22;;;;;;;0.47;0.47;;;;;;;16.53;81.40;99762.59;5053292;28;20654;-63
2023/05/08 04:51:49;;;;;;;0.40;0.40;;;;;;;16.85;80.73;99768.78;5052797;28;20211;-62
2023/05/08 04:54:16;;;;;;;0.50;0.50;;;;;;;16.97;77.91;99771.59;5053038;28;20205;-63
2023/05/08 04:56:43;;;;;;;0.40;0.40;;;;;;;17.17;76.07;99774.03;5052560;28;20230;-64
2023/05/08 04:59:10;;;;;;;0.50;0.50;;;;;;;17.32;74.73;99769.78;5052402;28;20203;-62
2023/05/08 05:01:37;;;;;;;0.50;0.50;;;;;;;17.28;69.85;99755.34;5052785;28;20215;-62
2023/05/08 05:04:05;;;;;;;0.70;0.70;;;;;;;17.28;66.84;99745.81;5052443;28;20278;-62
2023/05/08 05:06:32;;;;;;;0.67;0.67;;;;;;;17.64;66.15;99776.75;5052869;28;20197;-62
2023/05/08 05:08:59;;;;;;;0.50;0.50;;;;;;;17.84;67.42;99773.09;5052258;28;20216;-62
2023/05/08 05:11:26;;;;;;;0.57;0.57;;;;;;;18.08;66.47;99781.31;5052034;28;20197;-63
2023/05/08 05:13:53;;;;;;;0.40;0.40;;;;;;;18.30;65.37;99772.28;5046230;28;20233;-62
2023/05/08 05:16:19;;;;;;;0.40;0.40;;;;;;;18.51;62.85;99770.28;5050957;28;20201;-62
2023/05/08 05:18:46;;;;;;;0.50;0.50;;;;;;;18.70;59.90;99770.91;5052545;28;20194;-62
2023/05/08 05:21:14;;;;;;;0.60;0.60;;;;;;;18.81;59.12;99768.50;5051544;28;20204;-62
2023/05/08 05:23:41;;;;;;;0.57;0.57;;;;;;;18.88;57.85;99767.22;5052205;28;20600;-62
2023/05/08 05:26:08;;;;;;;0.40;0.40;;;;;;;19.02;56.04;99775.97;5052020;28;20209;-63
2023/05/08 05:28:34;;;;;;;0.40;0.40;;;;;;;19.12;56.34;99771.91;5047090;28;20671;-62
2023/05/08 05:31:01;;;;;;;0.50;0.50;;;;;;;19.21;57.70;99766.16;5052082;28;20206;-62
2023/05/08 05:33:28;;;;;;;0.40;0.40;;;;;;;19.24;56.20;99760.78;5052069;28;20198;-63
2023/05/08 05:35:54;;;;;;;0.60;0.60;;;;;;;19.45;56.99;99761.28;5051938;28;20203;-63
2023/05/08 05:38:23;;;;;;;0.43;0.43;;;;;;;19.70;55.79;99770.09;5051893;28;20200;-63
2023/05/08 05:40:49;;;;;;;0.43;0.43;;;;;;;19.86;54.56;99755.22;5052170;28;20198;-63
2023/05/08 05:43:16;;;;;;;0.40;0.40;;;;;;;20.06;53.05;99756.56;5051523;28;20667;-63
2023/05/08 05:45:43;;;;;;;0.63;0.63;;;;;;;20.28;53.16;99754.28;5051907;28;20678;-62
2023/05/08 05:48:09;;;;;;;0.60;0.60;;;;;;;20.52;52.43;99754.44;5051750;28;20207;-63
2023/05/08 05:50:36;;;;;;;0.30;0.30;;;;;;;20.71;52.76;99748.91;5051373;28;20215;-62
2023/05/08 05:53:03;;;;;;;0.40;0.40;;;;;;;20.89;52.72;99745.88;5051686;28;20726;-63
2023/05/08 05:55:31;;;;;;;0.50;0.50;;;;;;;21.00;51.63;99741.72;5051811;28;20262;-63
2023/05/08 05:57:58;;;;;;;0.50;0.50;;;;;;;20.69;50.55;99746.38;5051598;28;20204;-63
2023/05/08 06:00:25;;;;;;;0.40;0.40;;;;;;;20.87;50.51;99742.53;5050958;28;20196;-63
2023/05/08 06:02:51;;;;;;;0.50;0.50;;;;;;;21.03;50.73;99744.97;5051536;28;20199;-63
2023/05/08 06:05:18;;;;;;;0.60;0.60;;;;;;;21.14;50.79;99742.50;5051187;28;20361;-63
2023/05/08 06:07:46;;;;;;;0.50;0.50;;;;;;;20.81;50.16;99740.34;5051846;28;20670;-63
2023/05/08 06:10:13;;;;;;;0.40;0.40;;;;;;;20.92;51.02;99747.44;5051091;28;20234;-64
2023/05/08 06:12:41;;;;;;;0.30;0.30;;;;;;;21.17;50.00;99742.28;5051179;28;20587;-62
2023/05/08 06:15:08;;;;;;;0.43;0.43;;;;;;;21.29;48.95;99741.44;5050899;28;20261;-63
2023/05/08 06:17:35;;;;;;;0.40;0.40;;;;;;;21.32;48.25;99740.41;5050654;28;20282;-63
2023/05/08 06:20:02;;;;;;;0.50;0.50;;;;;;;21.33;48.58;99742.91;5047118;28;20197;-63
2023/05/08 06:22:30;;;;;;;0.37;0.37;;;;;;;21.52;50.15;99731.22;5051116;28;20664;-63
2023/05/08 06:24:56;;;;;;;0.30;0.30;;;;;;;21.51;47.24;99743.41;5051292;28;20197;-64
2023/05/08 06:27:23;;;;;;;0.40;0.40;;;;;;;21.47;46.75;99741.94;5051034;28;20193;-63
2023/05/08 06:29:52;;;;;;;0.60;0.60;;;;;;;21.68;46.12;99742.25;5051041;28;20658;-63
2023/05/08 06:32:20;;;;;;;0.40;0.40;;;;;;;21.95;46.03;99725.47;5051038;28;20739;-64
2023/05/08 06:34:47;;;;;;;0.40;0.40;;;;;;;22.22;47.00;99733.09;5049661;28;20557;-63
2023/05/08 06:37:13;;;;;;;0.40;0.40;;;;;;;22.22;46.16;99734.88;5051085;28;20197;-63
2023/05/08 06:39:40;;;;;;;0.60;0.60;;;;;;;22.44;45.75;99727.13;5050483;28;20197;-63
2023/05/08 06:42:07;;;;;;;0.40;0.40;;;;;;;21.96;45.84;99727.16;5050713;28;20209;-63
2023/05/08 06:44:34;;;;;;;0.40;0.40;;;;;;;22.04;46.49;99726.59;5050585;28;20731;-63
2023/05/08 06:47:02;;;;;;;1.10;0.60;;;;;;;22.24;46.73;99732.97;5050787;28;20208;-63
2023/05/08 06:49:28;;;;;;;0.40;0.40;;;;;;;22.26;47.30;99728.50;5050219;28;20246;-63
2023/05/08 06:51:55;;;;;;;0.40;0.40;;;;;;;22.39;47.75;99718.81;5050636;28;20680;-63
2023/05/08 06:54:22;;;;;;;0.70;0.70;;;;;;;22.64;45.63;99718.66;5050908;28;20200;-63
2023/05/08 06:56:48;;;;;;;0.40;0.40;;;;;;;22.78;45.82;99713.25;5050625;28;21015;-64
2023/05/08 06:59:15;;;;;;;0.37;0.37;;;;;;;22.73;46.24;99706.69;5050903;28;20647;-63
2023/05/08 07:01:42;;;;;;;0.30;0.30;;;;;;;23.10;45.99;99715.22;5050406;28;20283;-63
2023/05/08 07:04:10;;;;;;;0.30;0.30;;;;;;;23.46;48.74;99713.22;5050877;28;20227;-64
2023/05/08 07:06:37;;;;;;;0.60;0.60;;;;;;;23.32;45.70;99710.00;5048608;28;20205;-64
2023/05/08 07:09:03;;;;;;;0.33;0.33;;;;;;;23.42;45.81;99710.97;5050584;28;20204;-63
2023/05/08 07:11:30;;;;;;;0.50;0.50;;;;;;;23.41;45.93;99709.28;5050399;28;20196;-63
2023/05/08 07:13:57;;;;;;;0.40;0.40;;;;;;;23.19;45.15;99704.88;5049812;28;20262;-63
2023/05/08 07:16:23;;;;;;;0.40;0.40;;;;;;;23.51;50.34;99700.63;5050266;28;20259;-64
2023/05/08 07:18:50;;;;;;;0.30;0.30;;;;;;;23.51;44.69;99699.78;5050070;28;20729;-63
2023/05/08 07:21:20;;;;;;;0.43;0.43;;;;;;;23.66;45.57;99701.19;5050403;28;20192;-64
2023/05/08 07:23:46;;;;;;;0.47;0.47;;;;;;;23.73;46.32;99688.44;5049962;28;20207;-64
2023/05/08 07:26:13;;;;;;;0.30;0.30;;;;;;;23.90;43.46;99695.78;5050560;28;20204;-64
2023/05/08 07:28:40;;;;;;;0.30;0.30;;;;;;;23.92;44.92;99699.94;5050638;28;20200;-64
2023/05/08 07:31:07;;;;;;;0.40;0.40;;;;;;;23.73;43.42;99697.13;5050233;28;20212;-64
2023/05/08 07:33:33;;;;;;;0.30;0.30;;;;;;;23.50;45.83;99700.72;5032217;28;20205;-64
2023/05/08 07:36:00;;;;;;;0.30;0.30;;;;;;;23.64;46.06;99700.47;5049459;28;20691;-64
2023/05/08 07:38:28;;;;;;;0.40;0.40;;;;;;;23.60;46.79;99700.81;5050127;28;20196;-64
2023/05/08 07:40:56;;;;;;;0.40;0.40;;;;;;;23.62;46.06;99707.59;5049756;28;20267;-65
2023/05/08 07:43:23;;;;;;;0.43;0.43;;;;;;;23.66;46.73;99677.63;5049592;28;20219;-64
2023/05/08 07:45:50;;;;;;;0.30;0.30;;;;;;;23.85;46.77;99698.75;5049910;28;20282;-65
2023/05/08 07:48:17;;;;;;;0.30;0.30;;;;;;;24.05;44.08;99691.91;5053646;28;20217;-64
2023/05/08 07:50:44;;;;;;;0.40;0.40;;;;;;;23.98;46.57;99686.34;5053716;28;20756;-64
2023/05/08 07:53:11;;;;;;;0.30;0.30;;;;;;;24.00;45.03;99687.06;5053456;28;20200;-65
2023/05/08 07:55:39;;;;;;;0.40;0.40;;;;;;;24.28;44.99;99674.34;5053514;28;20693;-64
2023/05/08 07:58:06;;;;;;;0.20;0.20;;;;;;;23.77;44.10;99674.97;5054020;28;20193;-64
2023/05/08 08:00:33;;;;;;;0.30;0.30;;;;;;;23.68;45.08;99675.72;5053909;28;20211;-64
2023/05/08 08:03:01;;;;;;;0.60;0.60;;;;;;;23.93;44.84;99678.03;5053428;28;20212;-65
2023/05/08 08:05:27;;;;;;;0.30;0.30;;;;;;;24.02;44.31;99669.44;5053098;28;20227;-64
2023/05/08 08:07:54;;;;;;;0.40;0.40;;;;;;;24.13;45.47;99665.13;5053144;28;20200;-64
2023/05/08 08:10:21;;;;;;;0.30;0.30;;;;;;;24.30;45.29;99664.56;5053006;28;20537;-64
2023/05/08 08:12:49;;;;;;;0.40;0.40;;;;;;;24.39;45.21;99663.84;5053383;28;20250;-64
2023/05/08 08:15:15;;;;;;;0.43;0.43;;;;;;;24.59;46.36;99657.72;5053352;28;20220;-65
2023/05/08 08:17:42;;;;;;;0.30;0.30;;;;;;;24.84;45.59;99657.38;5053132;28;20259;-64
2023/05/08 08:20:09;;;;;;;0.30;0.30;;;;;;;24.71;44.93;99667.22;5052967;28;20623;-66
2023/05/08 08:22:37;;;;;;;0.30;0.30;;;;;;;24.55;43.31;99661.59;5053025;28;20205;-66
2023/05/08 08:25:05;;;;;;;0.30;0.30;;;;;;;24.73;44.38;99660.03;5053508;28;20665;-64
2023/05/08 08:27:31;;;;;;;0.30;0.30;;;;;;;24.74;46.10;99653.84;5053508;28;20200;-64
2023/05/08 08:30:00;;;;;;;0.40;0.40;;;;;;;24.82;42.61;99661.91;5053154;28;20259;-64
2023/05/08 08:32:26;;;;;;;0.20;0.20;;;;;;;24.77;44.85;99643.09;5053173;28;20754;-65
2023/05/08 08:34:53;;;;;;;0.90;0.90;;;;;;;24.75;44.96;99646.81;5053237;28;20193;-65
2023/05/08 08:37:20;;;;;;;0.40;0.40;;;;;;;24.76;46.79;99638.81;5051950;28;20228;-64
2023/05/08 08:39:47;;;;;;;0.30;0.30;;;;;;;24.75;43.41;99645.00;5053073;28;20592;-65
2023/05/08 08:42:14;;;;;;;0.30;0.30;;;;;;;24.75;44.34;99639.75;5052215;28;20196;-64
2023/05/08 08:44:40;;;;;;;0.20;0.20;;;;;;;24.86;44.25;99642.34;5052304;28;20201;-65
2023/05/08 08:47:11;;;;;;;0.40;0.40;;;;;;;25.01;44.38;99638.41;5052851;28;20258;-65
2023/05/08 08:49:42;;;;;;;0.40;0.40;;;;;;;24.77;43.55;99637.84;5052021;28;20959;-64
2023/05/08 08:52:18;;;;;;;0.20;0.20;;;;;;;24.74;44.50;99645.97;5052735;28;20192;-65
2023/05/08 08:54:47;;;;;;;0.40;0.40;;;;;;;24.59;45.34;99642.00;5052866;28;20986;-65
2023/05/08 08:57:15;;;;;;;0.30;0.30;;;;;;;24.54;44.35;99633.72;5052157;28;20208;-64
2023/05/08 08:59:44;;;;;;;0.40;0.40;;;;;;;24.75;43.35;99631.09;5052650;28;20242;-64
2023/05/08 09:02:16;;;;;;;0.40;0.40;;;;;;;24.91;44.18;99632.28;5052822;28;20291;-65
2023/05/08 09:04:43;;;;;;;0.23;0.23;;;;;;;24.82;45.07;99626.97;5052234;28;20316;-65
2023/05/08 09:07:11;;;;;;;0.40;0.40;;;;;;;24.70;44.23;99607.88;5052071;28;20219;-65
2023/05/08 09:09:40;;;;;;;0.50;0.50;;;;;;;24.90;46.29;99620.13;5052086;28;20197;-65
2023/05/08 09:12:08;;;;;;;0.33;0.33;;;;;;;25.19;44.48;99617.63;5052342;28;20295;-65
2023/05/08 09:14:35;;;;;;;0.30;0.30;;;;;;;25.24;46.00;99609.34;5049645;28;20227;-65
2023/05/08 09:17:01;;;;;;;0.30;0.30;;;;;;;25.50;47.31;99610.53;5052057;28;20680;-65
2023/05/08 09:19:30;;;;;;;0.27;0.27;;;;;;;25.65;49.44;99600.47;5052464;28;20651;-66
2023/05/08 09:21:59;;;;;;;0.37;0.37;;;;;;;25.50;43.47;99602.66;5052376;28;20207;-65
2023/05/08 09:24:26;;;;;;;0.30;0.30;;;;;;;25.59;44.52;99592.16;5052444;28;20695;-65
2023/05/08 09:26:53;;;;;;;0.60;0.60;;;;;;;25.62;44.58;99585.84;5052236;28;20203;-65
2023/05/08 09:29:21;;;;;;;0.30;0.30;;;;;;;25.73;46.33;99583.06;5052202;28;20635;-65
2023/05/08 09:31:49;;;;;;;0.30;0.30;;;;;;;25.73;43.57;99564.69;5052000;28;20209;-65
2023/05/08 09:34:24;;;;;;;0.50;0.50;;;;;;;25.58;44.47;99573.94;5052314;28;20641;-64
2023/05/08 09:36:52;;;;;;;0.40;0.40;;;;;;;25.62;45.86;99570.09;5052003;28;20216;-65
2023/05/08 09:39:23;;;;;;;0.30;0.30;;;;;;;25.70;43.61;99564.97;5052144;28;20196;-66
2023/05/08 09:42:00;;;;;;;0.30;0.30;;;;;;;25.94;44.12;99562.75;5051758;28;20193;-65
2023/05/08 09:44:26;;;;;;;0.43;0.43;;;;;;;25.72;42.63;99552.50;5052380;28;20222;-65
2023/05/08 09:47:10;;;;;;;0.30;0.30;;;;;;;25.63;44.90;99555.97;5051743;28;20189;-65
2023/05/08 09:49:38;;;;;;;0.33;0.33;;;;;;;25.68;44.31;99553.78;5051949;28;20715;-65
2023/05/08 09:52:07;;;;;;;0.50;0.50;;;;;;;25.55;45.89;99545.34;5051768;28;20264;-65
2023/05/08 09:54:33;;;;;;;0.40;0.40;;;;;;;25.67;46.49;99546.84;5051753;28;20204;-64
2023/05/08 09:57:00;;;;;;;0.50;0.50;;;;;;;25.95;44.71;99546.00;5051811;28;20619;-65
2023/05/08 09:59:29;;;;;;;0.37;0.37;;;;;;;25.92;44.97;99546.28;5052101;28;20648;-65
2023/05/08 10:01:57;;;;;;;0.30;0.30;;;;;;;25.96;44.68;99542.41;5051652;28;20693;-66
2023/05/08 10:04:33;;;;;;;0.50;0.50;;;;;;;26.09;43.62;99526.34;5051670;28;20628;-65
2023/05/08 10:07:00;;;;;;;0.40;0.40;;;;;;;25.86;44.70;99531.09;5050112;28;20619;-65
2023/05/08 10:09:28;;;;;;;0.40;0.40;;;;;;;25.91;45.97;99523.59;5050640;28;20197;-64
2023/05/08 10:11:55;;;;;;;0.90;0.90;;;;;;;25.90;44.65;99511.47;5050236;28;20212;-65
2023/05/08 10:14:23;;;;;;;0.40;0.40;;;;;;;26.13;45.76;99521.66;5050889;28;20262;-65
2023/05/08 10:16:52;;;;;;;0.30;0.30;;;;;;;26.29;49.00;99528.00;5050676;28;20592;-65
2023/05/08 10:19:21;;;;;;;0.30;0.30;;;;;;;26.43;48.06;99514.38;5050881;28;21935;-65
2023/05/08 10:21:49;;;;;;;0.40;0.40;;;;;;;26.46;44.65;99518.53;5050676;28;20300;-65
2023/05/08 10:24:17;;;;;;;0.30;0.30;;;;;;;26.06;43.68;99516.97;5050921;28;20196;-65
2023/05/08 10:26:55;;;;;;;0.30;0.30;;;;;;;25.97;43.91;99507.31;5047183;28;20197;-65
2023/05/08 10:29:32;;;;;;;0.50;0.50;;;;;;;25.98;45.14;99508.94;5051198;28;20361;-65
2023/05/08 10:32:00;;;;;;;0.73;0.73;;;;;;;25.91;45.99;99483.41;5050627;28;20228;-65
2023/05/08 10:34:31;;;;;;;0.40;0.40;;;;;;;26.04;45.35;99508.38;5050726;28;20207;-65
2023/05/08 10:36:58;;;;;;;0.30;0.30;;;;;;;26.23;46.10;99498.84;5050722;28;20651;-67
2023/05/08 10:39:26;;;;;;;0.30;0.30;;;;;;;26.32;47.37;99498.81;5050643;28;20204;-65
2023/05/08 10:41:54;;;;;;;0.40;0.40;;;;;;;26.45;46.23;99495.84;5050791;28;20258;-65
2023/05/08 10:44:21;;;;;;;0.40;0.40;;;;;;;26.52;42.84;99502.19;5050737;28;20216;-66
2023/05/08 10:46:54;;;;;;;0.30;0.30;;;;;;;26.56;44.75;99488.59;5050169;28;20200;-65
2023/05/08 10:49:31;;;;;;;0.30;0.30;;;;;;;26.72;44.59;99487.16;5050201;28;20213;-65
2023/05/08 10:52:12;;;;;;;0.27;0.27;;;;;;;26.87;44.07;99496.22;5049478;28;20680;-66
2023/05/08 10:55:05;;;;;;;0.30;0.30;;;;;;;26.96;43.74;99493.53;5048826;28;20197;-66
2023/05/08 10:57:33;;;;;;;0.30;0.30;;;;;;;27.01;46.51;99488.66;5037928;28;20212;-65
2023/05/08 10:59:59;;;;;;;0.60;0.60;;;;;;;26.81;43.18;99495.03;5050639;28;20193;-65
2023/05/08 11:02:28;;;;;;;0.30;0.30;;;;;;;26.43;45.11;99492.56;5050547;28;20208;-65
2023/05/08 11:04:55;;;;;;;0.20;0.20;;;;;;;26.58;44.25;99491.09;5049850;28;20224;-65
2023/05/08 11:07:30;;;;;;;1.17;0.40;;;;;;;26.70;43.22;99481.19;5050382;28;20599;-66
2023/05/08 11:10:12;;;;;;;0.30;0.30;;;;;;;26.44;43.14;99489.75;5049905;28;20202;-66
2023/05/08 11:12:50;;;;;;;0.30;0.30;;;;;;;26.43;45.99;99477.56;5050576;28;20631;-66
2023/05/08 11:15:17;;;;;;;0.40;0.40;;;;;;;26.70;44.73;99483.81;5050971;28;20283;-65
2023/05/08 11:17:53;;;;;;;0.30;0.30;;;;;;;26.90;44.08;99480.97;5046459;28;20236;-66
2023/05/08 11:20:23;;;;;;;0.30;0.30;;;;;;;27.22;44.81;99479.66;5049929;28;20231;-66
2023/05/08 11:22:50;;;;;;;0.30;0.30;;;;;;;27.16;44.51;99481.09;5054508;28;20208;-65
2023/05/08 11:25:18;;;;;;;0.30;0.30;;;;;;;27.16;44.25;99470.56;5054658;28;20201;-65
2023/05/08 11:28:13;;;;;;;0.30;0.30;;;;;;;26.96;42.31;99469.03;5054844;28;20672;-65
2023/05/08 11:30:44;;;;;;;0.40;0.40;;;;;;;26.95;44.96;99457.66;5054517;28;20285;-65
2023/05/08 11:33:15;;;;;;;0.50;0.50;;;;;;;27.10;46.61;99456.19;5053821;28;20192;-66
2023/05/08 11:35:53;;;;;;;0.37;0.37;;;;;;;27.32;46.48;99449.66;5054457;28;20259;-65
2023/05/08 11:38:22;;;;;;;0.30;0.30;;;;;;;27.53;44.52;99452.81;5054316;28;20204;-65
2023/05/08 11:40:55;;;;;;;0.43;0.43;;;;;;;27.47;43.08;99448.16;5053536;28;20189;-66
2023/05/08 11:44:12;;;;;;;0.83;0.83;;;;;;;27.62;43.00;99445.81;5054222;28;20646;-67